createdAt,value
2022-09-13T00:00:41.299Z,14.80
2022-09-13T00:03:13.182Z,14.70
2022-09-13T00:05:42.268Z,14.70
2022-09-13T00:08:12.018Z,14.70
2022-09-13T00:10:45.282Z,14.60
2022-09-13T00:13:17.251Z,14.70
2022-09-13T00:15:47.467Z,14.60
2022-09-13T00:18:19.934Z,14.60
2022-09-13T00:20:48.848Z,14.60
2022-09-13T00:23:17.824Z,14.60
2022-09-13T00:25:47.061Z,14.50
2022-09-13T00:28:15.907Z,14.60
2022-09-13T00:30:44.794Z,14.60
2022-09-13T00:33:13.685Z,14.60
2022-09-13T00:35:43.869Z,14.60
2022-09-13T00:38:12.797Z,14.50
2022-09-13T00:40:42.039Z,14.50
2022-09-13T00:43:18.723Z,14.50
2022-09-13T00:45:49.947Z,14.50
2022-09-13T00:48:25.183Z,14.40
2022-09-13T00:50:57.958Z,14.40
2022-09-13T00:53:32.753Z,14.30
2022-09-13T00:56:09.951Z,14.30
2022-09-13T00:58:45.464Z,14.30
2022-09-13T01:01:18.347Z,14.30
2022-09-13T01:03:50.161Z,14.30
2022-09-13T01:06:27.248Z,14.30
2022-09-13T01:08:59.183Z,14.30
2022-09-13T01:11:35.263Z,14.20
2022-09-13T01:14:06.673Z,14.20
2022-09-13T01:16:35.942Z,14.20
2022-09-13T01:19:05.797Z,14.10
2022-09-13T01:22:13.774Z,14.00
2022-09-13T01:25:25.924Z,14.00
2022-09-13T01:28:41.477Z,14.10
2022-09-13T01:31:21.925Z,14.10
2022-09-13T01:34:08.740Z,14.10
2022-09-13T01:37:05.265Z,14.00
2022-09-13T01:39:59.090Z,14.00
2022-09-13T01:42:48.429Z,13.90
2022-09-13T01:45:33.184Z,14.00
2022-09-13T01:48:12.508Z,14.00
2022-09-13T01:50:49.245Z,14.00
2022-09-13T01:53:33.818Z,14.00
2022-09-13T01:56:11.803Z,14.10
2022-09-13T01:58:48.187Z,14.10
2022-09-13T02:01:23.039Z,14.00
2022-09-13T02:04:02.910Z,14.00
2022-09-13T02:06:39.169Z,13.90
2022-09-13T02:09:21.315Z,13.90
2022-09-13T02:11:57.903Z,13.90
2022-09-13T02:14:34.061Z,13.90
2022-09-13T02:17:08.703Z,13.90
2022-09-13T02:19:47.110Z,14.00
2022-09-13T02:22:22.595Z,13.90
2022-09-13T02:25:02.436Z,14.00
2022-09-13T02:27:38.304Z,14.00
2022-09-13T02:30:11.436Z,14.00
2022-09-13T02:32:46.581Z,13.90
2022-09-13T02:35:25.571Z,13.90
2022-09-13T02:38:03.150Z,13.90
2022-09-13T02:40:40.806Z,13.90
2022-09-13T02:43:16.554Z,13.90
2022-09-13T02:45:58.803Z,13.80
2022-09-13T02:48:39.621Z,13.80
2022-09-13T02:51:22.338Z,13.90
2022-09-13T02:54:07.772Z,14.00
2022-09-13T02:56:52.448Z,14.00
2022-09-13T02:59:25.348Z,14.10
2022-09-13T03:02:01.598Z,14.10
2022-09-13T03:04:36.045Z,14.10
2022-09-13T03:07:12.012Z,14.00
2022-09-13T03:09:50.230Z,14.10
2022-09-13T03:12:45.233Z,14.00
2022-09-13T03:15:30.929Z,14.00
2022-09-13T03:18:18.881Z,14.00
2022-09-13T03:21:03.279Z,14.10
2022-09-13T03:23:54.685Z,14.10
2022-09-13T03:26:40.932Z,14.00
2022-09-13T03:29:29.370Z,14.00
2022-09-13T03:32:14.863Z,13.90
2022-09-13T03:34:56.648Z,13.90
2022-09-13T03:37:36.367Z,13.80
2022-09-13T03:40:14.676Z,13.80
2022-09-13T03:42:51.586Z,13.80
2022-09-13T03:45:28.844Z,13.90
2022-09-13T03:47:59.073Z,14.00
2022-09-13T03:50:29.738Z,14.00
2022-09-13T03:53:04.742Z,14.00
2022-09-13T03:55:40.203Z,14.00
2022-09-13T03:58:10.523Z,14.00
2022-09-13T04:00:40.654Z,14.00
2022-09-13T04:03:10.594Z,14.20
2022-09-13T04:05:40.160Z,14.20
2022-09-13T04:08:09.996Z,14.20
2022-09-13T04:10:40.893Z,14.30
2022-09-13T04:13:10.338Z,14.30
2022-09-13T04:15:39.201Z,14.30
2022-09-13T04:18:09.218Z,14.40
2022-09-13T04:20:38.136Z,14.30
2022-09-13T04:23:07.355Z,14.30
2022-09-13T04:25:39.546Z,14.30
2022-09-13T04:28:09.923Z,14.30
2022-09-13T04:30:42.581Z,14.30
2022-09-13T04:33:11.822Z,14.30
2022-09-13T04:35:41.184Z,14.20
2022-09-13T04:38:11.239Z,14.20
2022-09-13T04:40:40.864Z,14.20
2022-09-13T04:43:11.695Z,14.30
2022-09-13T04:45:40.793Z,14.20
2022-09-13T04:48:10.239Z,14.30
2022-09-13T04:50:39.244Z,14.30
2022-09-13T04:53:08.139Z,14.20
2022-09-13T04:55:37.077Z,14.30
2022-09-13T04:58:06.080Z,14.40
2022-09-13T05:00:37.579Z,14.30
2022-09-13T05:03:06.784Z,14.30
2022-09-13T05:05:35.706Z,14.40
2022-09-13T05:08:04.805Z,14.40
2022-09-13T05:10:33.730Z,14.40
2022-09-13T05:13:02.748Z,14.40
2022-09-13T05:15:31.782Z,14.50
2022-09-13T05:18:02.135Z,14.50
2022-09-13T05:20:31.319Z,14.50
2022-09-13T05:23:00.391Z,14.50
2022-09-13T05:25:29.385Z,14.50
2022-09-13T05:27:58.415Z,14.60
2022-09-13T05:30:27.800Z,14.70
2022-09-13T05:32:58.125Z,14.70
2022-09-13T05:35:28.560Z,14.80
2022-09-13T05:37:57.586Z,14.70
2022-09-13T05:40:26.642Z,14.80
2022-09-13T05:42:55.643Z,14.80
2022-09-13T05:45:24.667Z,14.80
2022-09-13T05:47:54.071Z,14.80
2022-09-13T05:50:45.028Z,14.80
2022-09-13T05:53:13.883Z,14.80
2022-09-13T05:55:43.943Z,14.80
2022-09-13T05:58:12.914Z,14.70
2022-09-13T06:00:41.741Z,14.70
2022-09-13T06:03:11.119Z,14.70
2022-09-13T06:05:40.003Z,14.80
2022-09-13T06:08:08.890Z,14.80
2022-09-13T06:10:39.191Z,14.70
2022-09-13T06:13:08.197Z,14.70
2022-09-13T06:15:41.317Z,14.60
2022-09-13T06:18:12.154Z,14.60
2022-09-13T06:20:44.134Z,14.60
2022-09-13T06:23:13.345Z,14.50
2022-09-13T06:25:45.136Z,14.50
2022-09-13T06:28:14.473Z,14.50
2022-09-13T06:30:43.382Z,14.40
2022-09-13T06:33:12.378Z,14.30
2022-09-13T06:35:41.252Z,14.30
2022-09-13T06:38:10.179Z,14.30
2022-09-13T06:40:39.203Z,14.30
2022-09-13T06:43:09.555Z,14.30
2022-09-13T06:45:38.548Z,14.30
2022-09-13T06:48:07.843Z,14.30
2022-09-13T06:50:36.777Z,14.30
2022-09-13T06:53:05.985Z,14.30
2022-09-13T06:55:34.861Z,14.40
2022-09-13T06:58:03.792Z,14.80
2022-09-13T07:00:34.172Z,14.90
2022-09-13T07:03:03.542Z,15.00
2022-09-13T07:05:32.431Z,15.10
2022-09-13T07:08:01.354Z,15.20
2022-09-13T07:10:30.284Z,15.40
2022-09-13T07:12:59.248Z,15.40
2022-09-13T07:15:28.217Z,15.40
2022-09-13T07:17:58.588Z,15.50
2022-09-13T07:20:27.559Z,15.40
2022-09-13T07:22:56.620Z,15.60
2022-09-13T07:25:25.507Z,15.80
2022-09-13T07:27:54.493Z,15.80
2022-09-13T07:30:25.875Z,15.90
2022-09-13T07:32:54.890Z,15.90
2022-09-13T07:35:25.283Z,16.00
2022-09-13T07:37:54.379Z,16.10
2022-09-13T07:40:24.070Z,16.20
2022-09-13T07:42:53.847Z,16.10
2022-09-13T07:45:24.087Z,16.10
2022-09-13T07:47:53.825Z,16.30
2022-09-13T07:50:24.349Z,16.20
2022-09-13T07:52:53.518Z,16.20
2022-09-13T07:55:22.439Z,16.30
2022-09-13T07:57:51.425Z,16.40
2022-09-13T08:00:21.046Z,16.50
2022-09-13T08:02:50.085Z,16.60
2022-09-13T08:05:19.280Z,16.80
2022-09-13T08:07:49.805Z,17.10
2022-09-13T08:10:18.962Z,17.10
2022-09-13T08:12:48.083Z,17.10
2022-09-13T08:15:17.331Z,17.10
2022-09-13T08:17:46.453Z,17.40
2022-09-13T08:20:15.545Z,17.70
2022-09-13T08:22:44.537Z,18.00
2022-09-13T08:25:15.169Z,18.00
2022-09-13T08:27:44.285Z,17.90
2022-09-13T08:30:14.659Z,18.10
2022-09-13T08:32:43.746Z,18.10
2022-09-13T08:35:13.595Z,17.90
2022-09-13T08:37:42.891Z,18.00
2022-09-13T08:40:13.799Z,18.30
2022-09-13T08:42:55.552Z,18.30
2022-09-13T08:45:24.573Z,18.30
2022-09-13T08:48:00.705Z,18.40
2022-09-13T08:50:34.034Z,18.30
2022-09-13T08:53:19.726Z,18.50
2022-09-13T08:56:04.669Z,18.80
2022-09-13T08:59:01.022Z,18.80
2022-09-13T09:01:49.884Z,19.00
2022-09-13T09:04:40.847Z,18.90
2022-09-13T09:07:18.955Z,19.00
2022-09-13T09:09:56.057Z,19.30
2022-09-13T09:12:41.267Z,19.10
2022-09-13T09:15:19.381Z,19.10
2022-09-13T09:17:59.193Z,18.90
2022-09-13T09:20:34.029Z,19.00
2022-09-13T09:23:17.841Z,19.30
2022-09-13T09:25:53.792Z,19.30
2022-09-13T09:28:24.474Z,19.40
2022-09-13T09:31:05.982Z,19.30
2022-09-13T09:34:00.507Z,19.50
2022-09-13T09:36:42.316Z,19.70
2022-09-13T09:39:16.564Z,20.20
2022-09-13T09:41:46.804Z,20.40
2022-09-13T09:44:22.596Z,20.80
2022-09-13T09:46:58.092Z,21.00
2022-09-13T09:49:52.627Z,21.10
2022-09-13T09:52:29.553Z,21.10
2022-09-13T09:55:13.479Z,21.30
2022-09-13T09:58:00.077Z,21.40
2022-09-13T10:00:35.611Z,21.00
2022-09-13T10:03:09.205Z,20.60
2022-09-13T10:05:39.132Z,20.80
2022-09-13T10:08:26.394Z,21.00
2022-09-13T10:11:00.274Z,21.10
2022-09-13T10:13:31.876Z,21.10
2022-09-13T10:16:05.803Z,21.20
2022-09-13T10:18:46.173Z,21.40
2022-09-13T10:21:28.439Z,21.80
2022-09-13T10:24:19.372Z,21.90
2022-09-13T10:26:48.881Z,22.00
2022-09-13T10:29:19.722Z,22.10
2022-09-13T10:31:55.477Z,22.00
2022-09-13T10:34:31.150Z,21.80
2022-09-13T10:37:05.751Z,21.60
2022-09-13T10:39:38.218Z,21.50
2022-09-13T10:42:10.819Z,21.30
2022-09-13T10:44:46.977Z,21.20
2022-09-13T10:47:28.691Z,21.20
2022-09-13T10:50:00.655Z,20.90
2022-09-13T10:52:36.321Z,20.90
2022-09-13T10:55:29.727Z,20.80
2022-09-13T10:58:16.753Z,20.90
2022-09-13T11:01:27.445Z,20.80
2022-09-13T11:04:39.137Z,20.70
2022-09-13T11:07:32.982Z,20.50
2022-09-13T11:10:11.720Z,20.50
2022-09-13T11:12:50.111Z,20.10
2022-09-13T11:15:36.959Z,20.00
2022-09-13T11:18:34.217Z,20.10
2022-09-13T11:21:22.719Z,19.90
2022-09-13T11:24:32.035Z,19.90
2022-09-13T11:27:12.948Z,19.80
2022-09-13T11:30:10.892Z,19.80
2022-09-13T11:33:11.013Z,19.70
2022-09-13T11:35:55.743Z,19.70
2022-09-13T11:38:47.691Z,19.50
2022-09-13T11:41:34.612Z,19.60
2022-09-13T11:44:49.475Z,19.50
2022-09-13T11:47:35.824Z,19.60
2022-09-13T11:50:27.349Z,19.70
2022-09-13T11:53:16.517Z,19.60
2022-09-13T11:55:53.498Z,19.40
2022-09-13T11:58:31.768Z,19.40
2022-09-13T12:01:07.174Z,19.40
2022-09-13T12:03:45.051Z,19.10
2022-09-13T12:06:22.239Z,19.00
2022-09-13T12:08:57.612Z,18.90
2022-09-13T12:11:35.181Z,18.90
2022-09-13T12:14:08.221Z,18.90
2022-09-13T12:16:42.983Z,18.90
2022-09-13T12:19:21.576Z,18.80
2022-09-13T12:21:54.621Z,18.80
2022-09-13T12:24:36.085Z,18.60
2022-09-13T12:27:14.947Z,18.50
2022-09-13T12:29:52.507Z,18.40
2022-09-13T12:32:23.861Z,18.50
2022-09-13T12:35:02.178Z,18.70
2022-09-13T12:38:07.398Z,18.90
2022-09-13T12:41:05.924Z,19.10
2022-09-13T12:44:11.780Z,19.30
2022-09-13T12:47:09.087Z,19.40
2022-09-13T12:50:21.387Z,19.50
2022-09-13T12:53:08.399Z,19.70
2022-09-13T12:56:02.319Z,19.70
2022-09-13T12:58:55.914Z,19.60
2022-09-13T13:01:30.892Z,19.50
2022-09-13T13:04:06.001Z,19.50
2022-09-13T13:06:40.620Z,19.60
2022-09-13T13:09:35.905Z,19.70
2022-09-13T13:12:05.602Z,19.60
2022-09-13T13:14:54.467Z,19.60
2022-09-13T13:17:52.591Z,19.50
2022-09-13T13:20:49.615Z,19.40
2022-09-13T13:23:24.763Z,19.30
2022-09-13T13:26:13.576Z,19.30
2022-09-13T13:29:20.224Z,19.20
2022-09-13T13:32:13.656Z,19.30
2022-09-13T13:34:46.542Z,19.70
2022-09-13T13:37:38.458Z,20.10
2022-09-13T13:40:27.066Z,20.30
2022-09-13T13:43:33.941Z,20.30
2022-09-13T13:46:32.015Z,20.60
2022-09-13T13:49:52.757Z,20.60
2022-09-13T13:53:05.705Z,20.60
2022-09-13T13:55:49.334Z,20.90
2022-09-13T13:58:39.846Z,20.90
2022-09-13T14:01:17.965Z,21.00
2022-09-13T14:04:41.365Z,21.10
2022-09-13T14:07:54.986Z,21.10
2022-09-13T14:10:38.450Z,21.20
2022-09-13T14:13:41.028Z,21.00
2022-09-13T14:16:26.062Z,21.10
2022-09-13T14:19:29.195Z,21.10
2022-09-13T14:22:18.134Z,21.10
2022-09-13T14:24:48.928Z,21.30
2022-09-13T14:27:24.537Z,21.40
2022-09-13T14:29:59.069Z,21.40
2022-09-13T14:32:38.446Z,21.50
2022-09-13T14:35:28.110Z,21.40
2022-09-13T14:37:58.641Z,21.40
2022-09-13T14:40:29.607Z,21.10
2022-09-13T14:43:00.304Z,20.80
2022-09-13T14:45:36.845Z,20.60
2022-09-13T14:48:12.323Z,20.60
2022-09-13T14:50:50.149Z,20.80
2022-09-13T14:53:24.055Z,20.90
2022-09-13T14:55:58.421Z,20.90
2022-09-13T14:58:39.332Z,20.80
2022-09-13T15:01:12.661Z,20.80
2022-09-13T15:03:45.035Z,21.00
2022-09-13T15:06:25.360Z,20.90
2022-09-13T15:08:59.266Z,20.80
2022-09-13T15:11:36.927Z,20.90
2022-09-13T15:14:26.858Z,21.20
2022-09-13T15:17:02.106Z,21.40
2022-09-13T15:19:41.321Z,21.70
2022-09-13T15:22:25.421Z,21.60
2022-09-13T15:24:57.804Z,21.50
2022-09-13T15:27:30.803Z,21.30
2022-09-13T15:30:04.386Z,21.10
2022-09-13T15:32:41.524Z,21.20
2022-09-13T15:35:28.420Z,21.30
2022-09-13T15:38:02.148Z,21.20
2022-09-13T15:40:44.468Z,21.10
2022-09-13T15:43:13.630Z,21.00
2022-09-13T15:45:43.972Z,21.00
2022-09-13T15:48:25.997Z,20.90
2022-09-13T15:51:10.993Z,20.70
2022-09-13T15:53:42.626Z,20.70
2022-09-13T15:56:18.337Z,20.60
2022-09-13T15:58:47.396Z,20.60
2022-09-13T16:01:18.711Z,20.60
2022-09-13T16:03:47.839Z,20.50
2022-09-13T16:06:17.591Z,20.30
2022-09-13T16:08:47.786Z,20.10
2022-09-13T16:11:16.806Z,19.90
2022-09-13T16:13:45.852Z,19.80
2022-09-13T16:16:17.072Z,19.70
2022-09-13T16:18:46.273Z,19.50
2022-09-13T16:21:15.431Z,19.60
2022-09-13T16:23:44.440Z,19.60
2022-09-13T16:26:13.618Z,19.60
2022-09-13T16:28:42.770Z,19.60
2022-09-13T16:31:11.769Z,19.50
2022-09-13T16:33:42.135Z,19.50
2022-09-13T16:36:14.115Z,19.60
2022-09-13T16:38:43.057Z,19.50
2022-09-13T16:41:12.361Z,19.50
2022-09-13T16:43:41.965Z,19.40
2022-09-13T16:46:14.757Z,19.40
2022-09-13T16:48:45.418Z,19.40
2022-09-13T16:51:15.107Z,19.40
2022-09-13T16:53:44.366Z,19.40
2022-09-13T16:56:16.691Z,19.40
2022-09-13T16:58:47.899Z,19.40
2022-09-13T17:01:21.912Z,19.30
2022-09-13T17:03:54.807Z,19.30
2022-09-13T17:06:26.156Z,19.20
2022-09-13T17:09:00.849Z,19.00
2022-09-13T17:11:33.202Z,19.00
2022-09-13T17:14:04.633Z,18.80
2022-09-13T17:16:39.466Z,18.80
2022-09-13T17:19:14.825Z,18.70
2022-09-13T17:21:44.667Z,18.50
2022-09-13T17:24:13.994Z,18.50
2022-09-13T17:26:43.548Z,18.50
2022-09-13T17:29:14.961Z,18.40
2022-09-13T17:31:44.624Z,18.40
2022-09-13T17:34:15.283Z,18.30
2022-09-13T17:36:48.149Z,18.20
2022-09-13T17:39:20.111Z,18.20
2022-09-13T17:41:49.959Z,18.10
2022-09-13T17:44:20.725Z,18.10
2022-09-13T17:46:50.075Z,18.00
2022-09-13T17:49:23.118Z,17.90
2022-09-13T17:52:17.043Z,17.80
2022-09-13T17:54:47.169Z,17.80
2022-09-13T17:57:19.054Z,17.80
2022-09-13T17:59:49.545Z,17.80
2022-09-13T18:02:20.364Z,17.80
2022-09-13T18:04:51.984Z,17.80
2022-09-13T18:07:21.276Z,17.80
2022-09-13T18:09:50.876Z,17.70
2022-09-13T18:12:20.090Z,17.70
2022-09-13T18:14:49.634Z,17.70
2022-09-13T18:17:19.904Z,17.60
2022-09-13T18:19:50.815Z,17.70
2022-09-13T18:22:20.039Z,17.80
2022-09-13T18:24:49.567Z,17.90
2022-09-13T18:27:19.010Z,17.80
2022-09-13T18:29:48.825Z,17.80
2022-09-13T18:32:18.364Z,17.80
2022-09-13T18:34:47.866Z,17.80
2022-09-13T18:37:19.110Z,17.70
2022-09-13T18:39:48.496Z,17.60
2022-09-13T18:42:18.092Z,17.50
2022-09-13T18:44:47.349Z,17.50
2022-09-13T18:47:19.079Z,17.30
2022-09-13T18:49:48.830Z,17.40
2022-09-13T18:52:22.313Z,17.20
2022-09-13T18:54:51.644Z,17.20
2022-09-13T18:57:20.983Z,17.10
2022-09-13T18:59:50.856Z,17.10
2022-09-13T19:02:20.467Z,17.00
2022-09-13T19:04:51.755Z,16.80
2022-09-13T19:07:23.472Z,16.80
2022-09-13T19:09:53.171Z,16.70
2022-09-13T19:12:22.628Z,16.80
2022-09-13T19:14:51.732Z,16.70
2022-09-13T19:17:21.162Z,16.60
2022-09-13T19:19:53.799Z,16.40
2022-09-13T19:22:27.832Z,16.40
2022-09-13T19:25:00.519Z,16.20
2022-09-13T19:27:30.410Z,16.30
2022-09-13T19:30:00.090Z,16.10
2022-09-13T19:32:37.475Z,16.00
2022-09-13T19:35:08.601Z,16.00
2022-09-13T19:37:39.228Z,15.90
2022-09-13T19:40:10.532Z,16.00
2022-09-13T19:42:40.195Z,16.00
2022-09-13T19:45:13.198Z,15.90
2022-09-13T19:48:25.740Z,15.90
2022-09-13T19:50:32.461Z,15.80
2022-09-13T19:53:03.027Z,15.70
2022-09-13T19:55:37.881Z,15.70
2022-09-13T19:58:07.549Z,15.60
2022-09-13T20:00:38.113Z,15.60
2022-09-13T20:03:07.588Z,15.50
2022-09-13T20:05:37.972Z,15.50
2022-09-13T20:08:13.013Z,15.50
2022-09-13T20:10:47.663Z,15.40
2022-09-13T20:13:17.627Z,15.30
2022-09-13T20:15:47.781Z,15.30
2022-09-13T20:18:19.892Z,15.20
2022-09-13T20:20:50.502Z,15.30
2022-09-13T20:23:21.240Z,15.30
2022-09-13T20:25:50.896Z,15.20
2022-09-13T20:28:19.944Z,15.10
2022-09-13T20:30:55.757Z,15.10
2022-09-13T20:33:25.302Z,15.10
2022-09-13T20:35:54.818Z,15.10
2022-09-13T20:38:25.808Z,15.10
2022-09-13T20:40:55.074Z,15.10
2022-09-13T20:43:24.055Z,15.10
2022-09-13T20:45:58.335Z,15.00
2022-09-13T20:48:28.012Z,15.00
2022-09-13T20:51:00.311Z,15.10
2022-09-13T20:53:31.700Z,15.10
2022-09-13T20:56:04.593Z,15.10
2022-09-13T20:58:33.788Z,15.00
2022-09-13T21:01:05.487Z,15.00
2022-09-13T21:03:38.857Z,15.00
2022-09-13T21:06:09.695Z,15.00
2022-09-13T21:08:43.802Z,15.10
2022-09-13T21:11:15.568Z,15.10
2022-09-13T21:13:47.342Z,15.10
2022-09-13T21:16:19.182Z,15.10
2022-09-13T21:18:49.095Z,15.10
2022-09-13T21:21:21.516Z,15.10
2022-09-13T21:23:52.737Z,15.20
2022-09-13T21:26:24.554Z,15.20
2022-09-13T21:28:54.062Z,15.20
2022-09-13T21:31:25.230Z,15.10
2022-09-13T21:33:57.853Z,15.10
2022-09-13T21:36:27.803Z,15.00
2022-09-13T21:38:58.882Z,14.90
2022-09-13T21:41:30.390Z,14.90
2022-09-13T21:43:59.598Z,14.90
2022-09-13T21:46:31.081Z,14.80
2022-09-13T21:49:04.960Z,14.80
2022-09-13T21:51:37.417Z,14.80
2022-09-13T21:54:10.526Z,14.70
2022-09-13T21:56:42.314Z,14.70
2022-09-13T21:59:15.718Z,14.60
2022-09-13T22:01:47.536Z,14.70
2022-09-13T22:04:22.165Z,14.60
2022-09-13T22:06:53.869Z,14.50
2022-09-13T22:09:27.879Z,14.50
2022-09-13T22:11:57.723Z,14.50
2022-09-13T22:14:26.847Z,14.40
2022-09-13T22:16:55.864Z,14.40
2022-09-13T22:19:27.754Z,14.20
2022-09-13T22:22:00.104Z,14.20
2022-09-13T22:24:33.588Z,14.10
2022-09-13T22:27:02.842Z,14.10
2022-09-13T22:29:31.904Z,14.10
2022-09-13T22:32:00.909Z,14.00
2022-09-13T22:34:31.106Z,14.00
2022-09-13T22:37:00.281Z,13.90
2022-09-13T22:39:30.639Z,13.70
2022-09-13T22:41:59.571Z,13.70
2022-09-13T22:44:28.568Z,13.60
2022-09-13T22:47:00.435Z,13.50
2022-09-13T22:49:29.472Z,13.50
2022-09-13T22:51:58.367Z,13.50
2022-09-13T22:54:28.648Z,13.50
2022-09-13T22:56:59.096Z,13.50
2022-09-13T22:59:28.148Z,13.40
2022-09-13T23:01:57.154Z,13.40
2022-09-13T23:04:26.048Z,13.40
2022-09-13T23:06:54.941Z,13.40
2022-09-13T23:09:23.884Z,13.30
2022-09-13T23:11:52.725Z,13.20
2022-09-13T23:14:23.154Z,13.20
2022-09-13T23:16:54.285Z,13.20
2022-09-13T23:19:25.790Z,13.10
2022-09-13T23:21:55.599Z,13.10
2022-09-13T23:24:24.884Z,13.10
2022-09-13T23:26:57.239Z,13.00
2022-09-13T23:29:27.543Z,13.00
2022-09-13T23:31:56.376Z,13.00
2022-09-13T23:34:25.541Z,13.00
2022-09-13T23:36:55.322Z,13.00
2022-09-13T23:39:24.225Z,13.00
2022-09-13T23:41:53.305Z,13.00
2022-09-13T23:44:22.157Z,12.90
2022-09-13T23:46:52.855Z,13.00
2022-09-13T23:49:22.260Z,13.00
2022-09-13T23:51:51.602Z,13.00
2022-09-13T23:54:20.518Z,13.00
2022-09-13T23:56:49.423Z,13.00
2022-09-13T23:59:18.655Z,13.00
